Time;durP1;ratioP1;P1;durP2;ratioP2;P2;SDS_P1;SDS_P2;PMS_P1;PMS_P2;Temp;Humidity;BMP_temperature;BMP_pressure;BME280_temperature;BME280_humidity;BME280_pressure;Samples;Min_cycle;Max_cycle;Signal;HPM_P1;HPM_P2
2023/01/17 00:00:10;;;;;;;27.47;13.00;;;;;;;4.20;100.00;148506.41;5021716;28;20083;-71
2023/01/17 00:02:36;;;;;;;41.93;18.83;;;;;;;4.26;100.00;148521.88;5032128;28;20022;-71
2023/01/17 00:10:29;;;;;;;29.73;12.83;;;;;;;4.19;100.00;148505.13;5017171;28;20049;-71
2023/01/17 00:12:57;;;;;;;19.20;9.90;;;;;;;4.03;100.00;148465.22;5013610;28;20026;-72
2023/01/17 00:15:23;;;;;;;16.67;8.43;;;;;;;3.85;100.00;148418.84;5019577;28;20022;-71
2023/01/17 00:17:49;;;;;;;23.73;10.70;;;;;;;3.77;100.00;148398.28;5019309;28;20052;-72
2023/01/17 00:26:02;;;;;;;24.37;12.27;;;;;;;3.58;100.00;148349.31;5020353;28;20080;-71
2023/01/17 01:35:10;;;;;;;13.57;6.03;;;;;;;3.33;100.00;148287.53;5030090;28;20087;-72
2023/01/17 01:37:35;;;;;;;9.53;4.50;;;;;;;3.37;100.00;148297.81;5028913;28;20029;-72
2023/01/17 01:40:01;;;;;;;13.50;5.10;;;;;;;3.39;100.00;148303.00;5029911;28;20385;-72
2023/01/17 01:42:26;;;;;;;7.93;3.93;;;;;;;3.37;100.00;148296.53;5030161;28;20029;-72
2023/01/17 01:44:53;;;;;;;11.43;5.23;;;;;;;3.46;100.00;148319.72;5030747;28;20064;-72
2023/01/17 01:47:27;;;;;;;8.43;3.07;;;;;;;3.44;100.00;148315.88;5031118;28;20136;-72
2023/01/17 01:49:53;;;;;;;11.83;6.03;;;;;;;3.50;100.00;148331.28;5015899;28;20026;-73
2023/01/17 01:52:21;;;;;;;9.63;5.73;;;;;;;3.55;100.00;148341.63;5030066;28;20037;-73
2023/01/17 01:54:55;;;;;;;8.13;4.53;;;;;;;3.54;100.00;148340.31;5031266;28;20109;-73
2023/01/17 01:57:24;;;;;;;6.80;3.30;;;;;;;3.51;100.00;148333.91;5030143;28;20025;-73
2023/01/17 02:00:03;;;;;;;7.70;3.80;;;;;;;3.57;100.00;148346.75;5031357;28;20112;-73
2023/01/17 02:02:30;;;;;;;6.30;3.30;;;;;;;3.61;100.00;148357.03;5078383;22;20023;-69
2023/01/17 02:04:57;;;;;;;5.10;2.90;;;;;;;3.62;100.00;148360.91;5025806;28;20036;-68
2023/01/17 02:07:42;;;;;;;5.03;2.60;;;;;;;3.64;100.00;148364.78;5019287;28;20388;-70
2023/01/17 02:10:08;;;;;;;5.00;2.87;;;;;;;3.66;100.00;148369.94;5017571;28;20040;-70
2023/01/17 02:12:34;;;;;;;5.00;2.93;;;;;;;3.68;100.00;148375.09;5029292;28;20091;-70
2023/01/17 02:15:00;;;;;;;5.60;2.50;;;;;;;3.67;100.00;148372.50;5029204;28;20037;-67
2023/01/17 02:17:56;;;;;;;5.53;2.80;;;;;;;3.73;100.00;148387.94;5012206;28;20125;-70
2023/01/17 02:21:26;;;;;;;5.80;3.10;;;;;;;3.72;100.00;148385.38;5018218;28;20577;-70
2023/01/17 02:24:09;;;;;;;4.37;2.33;;;;;;;3.70;100.00;148381.50;4993116;28;20062;-70
2023/01/17 02:27:07;;;;;;;4.70;2.53;;;;;;;3.73;100.00;148387.94;4993979;28;20077;-70
2023/01/17 02:29:47;;;;;;;5.57;2.60;;;;;;;3.71;100.00;148382.78;5011572;28;20041;-70
2023/01/17 02:32:43;;;;;;;3.57;1.70;;;;;;;3.77;100.00;148398.28;5031533;28;20037;-69
2023/01/17 02:35:16;;;;;;;3.57;1.93;;;;;;;3.76;100.00;148395.69;5029193;28;20171;-69
2023/01/17 02:38:02;;;;;;;3.07;1.50;;;;;;;3.76;100.00;148395.69;5026243;28;20074;-70
2023/01/17 02:40:37;;;;;;;4.63;1.50;;;;;;;3.76;100.00;148395.69;5029299;28;20078;-67
2023/01/17 02:43:13;;;;;;;2.80;1.57;;;;;;;3.76;100.00;148395.69;5027000;28;20036;-69
2023/01/17 02:45:38;;;;;;;3.53;1.30;;;;;;;3.76;100.00;148395.69;5026238;28;20025;-71
2023/01/17 02:48:07;;;;;;;3.43;1.70;;;;;;;3.76;100.00;148395.69;5025727;28;20108;-68
2023/01/17 02:51:19;;;;;;;3.30;1.60;;;;;;;3.76;100.00;148395.69;5024671;28;20096;-70
2023/01/17 02:54:03;;;;;;;2.50;1.27;;;;;;;3.70;100.00;148380.22;5027964;28;20580;-68
2023/01/17 02:56:44;;;;;;;3.53;1.90;;;;;;;3.70;100.00;148380.22;5026478;28;20044;-71
2023/01/17 02:59:37;;;;;;;5.07;1.90;;;;;;;3.66;100.00;148369.94;5024118;28;20041;-68
2023/01/17 03:02:21;;;;;;;2.53;1.00;;;;;;;3.64;100.00;148364.78;5030594;28;20069;-68
2023/01/17 03:05:07;;;;;;;2.43;1.30;;;;;;;3.65;100.00;148368.66;5036452;28;20485;-71
2023/01/17 03:07:33;;;;;;;2.50;1.07;;;;;;;3.65;100.00;148367.38;5032654;28;20048;-71
2023/01/17 03:10:02;;;;;;;2.13;1.03;;;;;;;3.62;100.00;148360.91;5033047;28;20030;-69
2023/01/17 03:12:29;;;;;;;1.53;0.80;;;;;;;3.55;100.00;148341.63;5031366;28;20037;-68
2023/01/17 03:14:55;;;;;;;1.30;0.80;;;;;;;3.45;100.00;148318.44;5032361;28;20128;-69
2023/01/17 03:17:23;;;;;;;2.20;0.93;;;;;;;3.45;100.00;148318.44;5031831;28;20114;-70
2023/01/17 03:19:49;;;;;;;2.23;1.00;;;;;;;3.45;100.00;148318.44;5038726;28;20421;-69
2023/01/17 03:22:14;;;;;;;1.00;0.80;;;;;;;3.45;100.00;148318.44;5036662;28;20040;-70
2023/01/17 03:24:40;;;;;;;2.53;0.70;;;;;;;3.45;100.00;148318.44;5039768;28;20025;-69
2023/01/17 03:27:05;;;;;;;1.40;0.70;;;;;;;3.03;100.00;148211.66;5019588;28;20021;-70
2023/01/17 03:29:30;;;;;;;0.53;0.53;;;;;;;2.92;100.00;148184.63;5048017;28;20071;-71
2023/01/17 03:31:57;;;;;;;0.83;0.60;;;;;;;2.81;100.00;148155.03;5031769;28;20048;-70
2023/01/17 03:34:22;;;;;;;0.60;0.50;;;;;;;2.81;100.00;148155.03;5031883;28;20033;-69
2023/01/17 03:36:47;;;;;;;1.37;0.73;;;;;;;2.81;100.00;148155.03;5031715;28;20412;-70
2023/01/17 03:39:13;;;;;;;1.63;0.70;;;;;;;2.75;100.00;148140.84;5028463;28;20116;-69
2023/01/17 03:41:38;;;;;;;1.70;0.87;;;;;;;2.70;100.00;148128.00;5019663;28;20033;-69
2023/01/17 03:44:04;;;;;;;2.83;0.73;;;;;;;2.70;100.00;148128.00;5023758;28;20529;-69
2023/01/17 03:46:30;;;;;;;2.30;0.80;;;;;;;2.70;100.00;148128.00;5043857;28;20589;-69
2023/01/17 03:48:55;;;;;;;1.50;0.80;;;;;;;2.70;100.00;148128.00;5049252;28;20056;-69
2023/01/17 03:51:21;;;;;;;0.97;0.60;;;;;;;2.62;100.00;148107.44;5046684;28;20480;-70
2023/01/17 03:53:46;;;;;;;1.27;0.70;;;;;;;2.62;100.00;148107.44;5035849;28;20485;-69
2023/01/17 03:56:13;;;;;;;2.17;0.80;;;;;;;2.62;100.00;148107.44;5031522;28;20029;-70
2023/01/17 03:58:38;;;;;;;1.20;0.83;;;;;;;2.62;100.00;148107.44;5032979;28;20475;-69
2023/01/17 04:01:04;;;;;;;2.60;0.73;;;;;;;2.62;100.00;148107.44;5034596;28;20035;-68
2023/01/17 04:03:30;;;;;;;1.13;0.60;;;;;;;2.62;100.00;148107.44;5031714;28;20036;-68
2023/01/17 04:05:55;;;;;;;1.80;0.80;;;;;;;2.40;100.00;148050.84;5029912;28;20090;-69
2023/01/17 04:08:21;;;;;;;1.27;0.50;;;;;;;2.33;100.00;148035.44;5028263;28;20119;-68
2023/01/17 04:10:46;;;;;;;1.03;0.70;;;;;;;2.33;100.00;148035.44;5021140;28;20124;-70
2023/01/17 04:13:12;;;;;;;1.00;0.63;;;;;;;2.24;100.00;148010.97;5034701;28;20466;-70
2023/01/17 04:15:38;;;;;;;2.07;0.80;;;;;;;2.17;100.00;147994.25;5030722;28;20034;-69
2023/01/17 04:18:04;;;;;;;3.37;0.80;;;;;;;2.17;100.00;147994.25;5033782;28;20037;-70
2023/01/17 04:20:33;;;;;;;3.20;0.60;;;;;;;2.08;100.00;147969.88;5033797;28;20530;-69
2023/01/17 04:22:59;;;;;;;2.63;1.00;;;;;;;2.02;100.00;147955.69;5033758;28;20481;-69
2023/01/17 04:25:24;;;;;;;2.33;0.73;;;;;;;1.91;100.00;147927.41;5032142;28;20036;-68
2023/01/17 04:27:51;;;;;;;1.63;0.70;;;;;;;1.90;100.00;147924.84;5031568;28;20041;-70
2023/01/17 04:30:16;;;;;;;1.33;0.70;;;;;;;1.77;100.00;147894.00;5032234;28;20056;-69
2023/01/17 04:32:42;;;;;;;2.03;1.00;;;;;;;1.60;100.00;147850.34;5015514;28;20029;-68
2023/01/17 04:35:08;;;;;;;2.90;1.20;;;;;;;1.58;100.00;147845.22;5023641;28;20034;-69
2023/01/17 04:37:34;;;;;;;0.70;0.50;;;;;;;1.45;100.00;147811.75;5034596;28;20033;-69
2023/01/17 04:39:59;;;;;;;0.90;0.70;;;;;;;1.43;100.00;147807.91;5033623;28;20250;-69
2023/01/17 04:42:25;;;;;;;0.63;0.60;;;;;;;1.44;100.00;147809.19;5028899;28;20530;-69
2023/01/17 04:44:50;;;;;;;1.30;0.87;;;;;;;1.46;100.00;147814.38;5033336;28;20026;-69
2023/01/17 04:47:15;;;;;;;1.53;0.70;;;;;;;1.39;100.00;147797.66;5026919;28;20030;-68
2023/01/17 04:49:41;;;;;;;1.70;0.70;;;;;;;1.39;100.00;147797.66;5021746;28;20029;-69
2023/01/17 04:52:06;;;;;;;1.10;0.70;;;;;;;1.42;100.00;147805.34;5032477;28;20036;-69
2023/01/17 04:54:31;;;;;;;1.90;0.90;;;;;;;1.49;100.00;147822.06;5033288;28;20576;-69
2023/01/17 04:56:57;;;;;;;4.33;1.00;;;;;;;1.55;100.00;147836.19;5031386;28;20527;-70
2023/01/17 04:59:22;;;;;;;1.37;0.77;;;;;;;1.57;100.00;147842.59;5033342;28;20021;-69
2023/01/17 05:01:48;;;;;;;4.07;0.90;;;;;;;1.63;100.00;147858.03;5033108;28;20029;-70
2023/01/17 05:04:14;;;;;;;2.53;0.97;;;;;;;1.63;100.00;147858.03;5028091;28;20025;-69
2023/01/17 05:06:39;;;;;;;4.77;1.30;;;;;;;1.72;100.00;147881.19;5014316;28;20041;-69
2023/01/17 05:09:05;;;;;;;6.23;1.30;;;;;;;1.72;100.00;147881.19;5032247;28;20087;-69
2023/01/17 05:11:31;;;;;;;4.43;0.93;;;;;;;1.77;100.00;147892.72;5033141;28;20040;-69
2023/01/17 05:13:56;;;;;;;4.67;1.20;;;;;;;1.82;100.00;147905.59;5030521;28;20537;-69
2023/01/17 05:16:22;;;;;;;3.90;1.20;;;;;;;1.82;100.00;147905.59;5031307;28;20428;-70
2023/01/17 05:18:51;;;;;;;6.77;1.47;;;;;;;1.82;100.00;147905.59;5025457;28;20029;-70
2023/01/17 05:21:16;;;;;;;3.63;1.00;;;;;;;1.82;100.00;147905.59;5025118;28;20041;-69
2023/01/17 05:23:42;;;;;;;3.80;1.00;;;;;;;1.82;100.00;147905.59;5020083;28;20040;-69
2023/01/17 05:26:07;;;;;;;4.13;0.80;;;;;;;1.82;100.00;147905.59;5031760;28;20077;-69
2023/01/17 05:28:33;;;;;;;4.00;1.00;;;;;;;1.82;100.00;147905.59;5024526;28;20051;-69
2023/01/17 05:30:58;;;;;;;7.70;1.13;;;;;;;1.82;100.00;147905.59;5022403;28;20515;-69
2023/01/17 05:33:23;;;;;;;6.77;1.30;;;;;;;1.82;100.00;147905.59;5025318;28;20520;-70
2023/01/17 05:35:49;;;;;;;2.43;0.87;;;;;;;1.82;100.00;147905.59;5032153;28;20044;-69
2023/01/17 05:38:14;;;;;;;4.27;1.10;;;;;;;1.82;100.00;147905.59;5027612;28;20476;-70
2023/01/17 05:40:40;;;;;;;3.17;1.07;;;;;;;1.82;100.00;147905.59;5031183;28;20025;-70
2023/01/17 05:43:05;;;;;;;17.57;1.13;;;;;;;1.82;100.00;147905.59;5029835;28;20104;-68
2023/01/17 05:45:32;;;;;;;6.40;1.13;;;;;;;1.82;100.00;147905.59;5019180;28;20141;-70
2023/01/17 05:47:58;;;;;;;2.13;1.00;;;;;;;1.82;100.00;147905.59;5020628;28;20080;-70
2023/01/17 05:50:32;;;;;;;3.10;1.10;;;;;;;1.82;100.00;147905.59;5026211;28;20025;-70
2023/01/17 05:53:00;;;;;;;2.47;1.00;;;;;;;1.82;100.00;147905.59;5026794;28;20095;-69
2023/01/17 05:55:27;;;;;;;3.00;1.30;;;;;;;1.82;100.00;147905.59;5018927;28;20501;-70
2023/01/17 05:57:53;;;;;;;4.73;1.43;;;;;;;1.82;100.00;147905.59;5028687;28;20154;-69
2023/01/17 06:00:19;;;;;;;3.47;0.90;;;;;;;1.82;100.00;147905.59;5027361;28;20461;-69
2023/01/17 06:02:45;;;;;;;7.27;1.50;;;;;;;1.82;100.00;147905.59;5030952;28;20128;-70
2023/01/17 06:05:12;;;;;;;5.37;1.40;;;;;;;1.82;100.00;147905.59;5031942;28;20040;-69
2023/01/17 06:07:37;;;;;;;3.03;1.20;;;;;;;1.82;100.00;147905.59;5031968;28;20071;-69
2023/01/17 06:10:03;;;;;;;4.13;1.10;;;;;;;1.82;100.00;147905.59;5031965;28;20492;-69
2023/01/17 06:12:28;;;;;;;5.33;1.40;;;;;;;1.82;100.00;147905.59;5031296;28;20045;-69
2023/01/17 06:14:54;;;;;;;12.60;1.50;;;;;;;1.82;100.00;147905.59;5030833;28;20021;-69
2023/01/17 06:17:19;;;;;;;4.63;1.30;;;;;;;1.82;100.00;147905.59;5031959;28;20080;-69
2023/01/17 06:19:44;;;;;;;5.00;1.33;;;;;;;1.82;100.00;147905.59;5031829;28;20033;-69
2023/01/17 06:22:10;;;;;;;4.53;1.07;;;;;;;1.82;100.00;147905.59;5030948;28;20063;-69
2023/01/17 06:24:35;;;;;;;8.73;1.50;;;;;;;1.82;100.00;147905.59;5031741;28;20104;-69
2023/01/17 06:27:01;;;;;;;4.67;1.30;;;;;;;1.82;100.00;147905.59;5030271;28;20380;-69
2023/01/17 06:29:26;;;;;;;5.40;1.20;;;;;;;1.82;100.00;147905.59;5029420;28;20064;-69
2023/01/17 06:31:51;;;;;;;9.57;1.83;;;;;;;1.82;100.00;147905.59;5031257;28;20029;-70
2023/01/17 06:34:17;;;;;;;4.33;1.40;;;;;;;1.82;100.00;147905.59;5031791;28;20029;-69
2023/01/17 06:36:42;;;;;;;6.07;1.40;;;;;;;1.82;100.00;147905.59;5030532;28;20402;-69
2023/01/17 06:39:11;;;;;;;8.27;1.40;;;;;;;1.82;100.00;147905.59;5031620;28;20029;-69
2023/01/17 06:41:36;;;;;;;3.70;1.20;;;;;;;1.82;100.00;147905.59;5031693;28;20022;-69
2023/01/17 06:44:02;;;;;;;4.80;1.20;;;;;;;1.82;100.00;147905.59;5029521;28;20108;-69
2023/01/17 06:46:27;;;;;;;10.30;1.50;;;;;;;1.82;100.00;147905.59;5030942;28;20439;-69
2023/01/17 06:48:52;;;;;;;8.20;1.23;;;;;;;1.82;100.00;147905.59;5030449;28;20036;-69
2023/01/17 06:51:18;;;;;;;10.80;1.90;;;;;;;1.82;100.00;147905.59;5029333;28;20025;-69
2023/01/17 06:53:43;;;;;;;6.87;1.50;;;;;;;1.82;100.00;147905.59;5028732;28;20068;-69
2023/01/17 06:56:09;;;;;;;2.70;1.20;;;;;;;1.82;100.00;147905.59;5012731;28;20026;-70
2023/01/17 06:58:35;;;;;;;7.10;1.50;;;;;;;1.82;100.00;147905.59;5011803;28;20470;-70
2023/01/17 07:01:11;;;;;;;7.03;1.77;;;;;;;1.82;100.00;147905.59;5029815;28;20029;-69
2023/01/17 07:03:37;;;;;;;2.43;1.00;;;;;;;1.82;100.00;147905.59;5031133;28;20045;-69
2023/01/17 07:06:04;;;;;;;5.27;1.40;;;;;;;1.82;100.00;147905.59;5030383;28;20071;-69
2023/01/17 07:08:30;;;;;;;6.90;1.77;;;;;;;1.82;100.00;147905.59;5031150;28;20037;-69
2023/01/17 07:11:01;;;;;;;6.97;1.73;;;;;;;1.82;100.00;147905.59;5031174;28;20053;-69
2023/01/17 07:13:27;;;;;;;6.47;1.93;;;;;;;1.82;100.00;147905.59;5031056;28;20021;-69
2023/01/17 07:15:52;;;;;;;9.20;2.23;;;;;;;1.82;100.00;147905.59;5029872;28;20070;-69
2023/01/17 07:18:21;;;;;;;7.50;1.93;;;;;;;1.82;100.00;147905.59;5031464;28;20389;-69
2023/01/17 07:20:50;;;;;;;6.57;1.67;;;;;;;1.82;100.00;147905.59;5029481;28;20057;-69
2023/01/17 07:23:18;;;;;;;5.53;1.90;;;;;;;1.82;100.00;147905.59;5031044;28;20036;-69
2023/01/17 07:25:49;;;;;;;11.70;2.20;;;;;;;1.82;100.00;147905.59;5031464;28;20025;-70
2023/01/17 07:28:14;;;;;;;7.90;2.13;;;;;;;1.82;100.00;147905.59;5031264;28;20029;-69
2023/01/17 07:30:39;;;;;;;4.97;1.80;;;;;;;1.82;100.00;147905.59;5030797;28;20082;-69
2023/01/17 07:33:05;;;;;;;5.70;1.90;;;;;;;1.82;100.00;147905.59;5031177;28;20021;-69
2023/01/17 07:35:30;;;;;;;9.57;2.00;;;;;;;1.82;100.00;147905.59;5030993;28;20036;-69
2023/01/17 07:37:55;;;;;;;5.53;1.77;;;;;;;1.82;100.00;147905.59;5030718;28;20096;-69
2023/01/17 07:40:21;;;;;;;6.63;2.70;;;;;;;1.82;100.00;147905.59;5028727;28;20030;-69
2023/01/17 07:42:47;;;;;;;6.77;2.40;;;;;;;1.82;100.00;147905.59;5014656;28;20028;-70
2023/01/17 07:45:14;;;;;;;8.17;1.90;;;;;;;1.82;100.00;147905.59;5018568;28;20417;-69
2023/01/17 07:47:40;;;;;;;6.60;2.33;;;;;;;1.82;100.00;147905.59;5034518;28;20032;-70
2023/01/17 07:50:06;;;;;;;7.80;2.00;;;;;;;1.82;100.00;147905.59;5032107;28;20536;-69
2023/01/17 07:52:32;;;;;;;8.20;1.80;;;;;;;1.82;100.00;147905.59;5034298;28;20021;-69
2023/01/17 07:54:57;;;;;;;5.37;1.87;;;;;;;1.82;100.00;147905.59;5033973;28;20532;-69
2023/01/17 07:57:23;;;;;;;8.70;2.30;;;;;;;1.82;100.00;147905.59;5034235;28;20028;-70
2023/01/17 07:59:51;;;;;;;7.70;2.23;;;;;;;1.82;100.00;147905.59;5032592;28;20473;-70
2023/01/17 08:02:19;;;;;;;11.17;2.00;;;;;;;1.82;100.00;147905.59;5034062;28;20029;-69
2023/01/17 08:04:45;;;;;;;9.10;1.83;;;;;;;1.82;100.00;147905.59;5019059;28;20359;-69
2023/01/17 08:07:12;;;;;;;7.20;1.87;;;;;;;1.82;100.00;147905.59;5014395;28;20395;-70
2023/01/17 08:09:39;;;;;;;6.70;1.90;;;;;;;1.82;100.00;147905.59;5020706;28;20079;-69
2023/01/17 08:12:04;;;;;;;6.30;2.33;;;;;;;1.82;100.00;147905.59;5032978;28;20075;-70
2023/01/17 08:14:30;;;;;;;4.53;1.50;;;;;;;1.82;100.00;147905.59;5034104;28;20461;-70
2023/01/17 08:17:10;;;;;;;6.80;1.90;;;;;;;1.82;100.00;147905.59;5032108;28;20389;-70
2023/01/17 08:19:36;;;;;;;8.97;1.83;;;;;;;1.82;100.00;147905.59;5034194;28;20029;-69
2023/01/17 08:22:01;;;;;;;4.10;1.63;;;;;;;1.82;100.00;147905.59;5032479;28;20388;-69
2023/01/17 08:24:27;;;;;;;2.90;1.27;;;;;;;1.82;100.00;147905.59;5033777;28;20142;-69
2023/01/17 08:26:55;;;;;;;4.83;1.20;;;;;;;1.82;100.00;147905.59;5033696;28;20083;-69
2023/01/17 08:29:21;;;;;;;6.90;1.40;;;;;;;1.82;100.00;147905.59;5033801;28;20374;-70
2023/01/17 08:31:46;;;;;;;8.00;1.30;;;;;;;1.82;100.00;147905.59;5032021;28;20456;-70
2023/01/17 08:34:13;;;;;;;6.73;1.60;;;;;;;1.82;100.00;147905.59;5033815;28;20036;-70
2023/01/17 08:36:39;;;;;;;7.53;1.63;;;;;;;1.82;100.00;147905.59;5033713;28;20083;-70
2023/01/17 08:39:05;;;;;;;6.33;1.63;;;;;;;1.82;100.00;147905.59;5032988;28;20473;-69
2023/01/17 08:41:31;;;;;;;5.33;1.60;;;;;;;1.82;100.00;147905.59;5032448;28;20035;-69
2023/01/17 08:43:56;;;;;;;7.37;1.60;;;;;;;1.82;100.00;147905.59;5031423;28;20037;-70
2023/01/17 08:46:23;;;;;;;4.10;1.20;;;;;;;1.82;100.00;147905.59;5031809;28;20037;-70
2023/01/17 08:48:54;;;;;;;5.63;1.40;;;;;;;1.82;100.00;147905.59;5030352;28;20079;-70
2023/01/17 08:51:20;;;;;;;10.07;2.33;;;;;;;1.82;100.00;147905.59;5030211;28;20025;-69
2023/01/17 08:53:45;;;;;;;7.47;1.63;;;;;;;1.82;100.00;147905.59;5030408;28;20079;-69
2023/01/17 08:56:11;;;;;;;6.13;1.70;;;;;;;1.82;100.00;147905.59;5032526;28;20037;-70
2023/01/17 08:58:36;;;;;;;4.60;1.50;;;;;;;1.82;100.00;147905.59;5033101;28;20481;-70
2023/01/17 09:01:04;;;;;;;4.63;1.17;;;;;;;1.82;100.00;147905.59;5031430;28;20025;-69
2023/01/17 09:03:31;;;;;;;6.40;1.20;;;;;;;1.82;100.00;147905.59;5032877;28;20064;-69
2023/01/17 09:06:11;;;;;;;6.13;1.30;;;;;;;1.82;100.00;147905.59;5032992;28;20037;-69
2023/01/17 09:08:37;;;;;;;4.53;1.17;;;;;;;1.82;100.00;147905.59;5032822;28;20108;-69
2023/01/17 09:11:11;;;;;;;1.30;0.80;;;;;;;1.82;100.00;147905.59;5031313;28;20031;-70
2023/01/17 09:13:37;;;;;;;2.90;1.00;;;;;;;1.82;100.00;147905.59;5033096;28;20108;-68
2023/01/17 09:16:04;;;;;;;5.37;1.23;;;;;;;1.82;100.00;147905.59;5029933;28;20033;-69
2023/01/17 09:18:30;;;;;;;6.80;1.50;;;;;;;1.82;100.00;147905.59;5032746;28;20035;-69
2023/01/17 09:20:58;;;;;;;5.80;1.33;;;;;;;1.82;100.00;147905.59;5032945;28;20036;-69
2023/01/17 09:23:26;;;;;;;5.37;1.13;;;;;;;1.82;100.00;147905.59;5031844;28;20021;-69
2023/01/17 09:25:56;;;;;;;8.87;1.60;;;;;;;1.82;100.00;147905.59;5031803;28;20021;-69
2023/01/17 09:28:23;;;;;;;7.17;1.50;;;;;;;1.82;100.00;147905.59;5032546;28;20032;-68
2023/01/17 09:30:49;;;;;;;4.50;1.23;;;;;;;1.82;100.00;147905.59;5031941;28;20422;-70
2023/01/17 09:33:16;;;;;;;5.90;1.90;;;;;;;1.82;100.00;147905.59;5031876;28;20104;-69
2023/01/17 09:35:42;;;;;;;8.73;2.43;;;;;;;1.82;100.00;147905.59;5032343;28;20025;-69
2023/01/17 09:38:07;;;;;;;3.10;1.20;;;;;;;1.82;100.00;147905.59;5032516;28;20509;-69
2023/01/17 09:40:36;;;;;;;7.93;1.87;;;;;;;1.82;100.00;147905.59;5032539;28;20025;-69
2023/01/17 09:43:06;;;;;;;3.00;1.37;;;;;;;1.82;100.00;147905.59;5031821;28;20043;-69
2023/01/17 09:45:33;;;;;;;5.07;1.53;;;;;;;1.82;100.00;147905.59;5029288;28;20033;-69
2023/01/17 09:48:04;;;;;;;4.37;1.67;;;;;;;1.82;100.00;147905.59;5032404;28;20431;-69
2023/01/17 09:50:32;;;;;;;9.85;2.58;;;;;;;1.82;100.00;147905.59;5032727;28;20512;-69
2023/01/17 09:53:01;;;;;;;8.07;1.80;;;;;;;1.82;100.00;147905.59;5032029;28;20520;-69
2023/01/17 09:55:33;;;;;;;4.23;1.07;;;;;;;1.82;100.00;147905.59;5030927;28;20113;-68
2023/01/17 09:58:08;;;;;;;7.73;1.70;;;;;;;1.82;100.00;147905.59;5032245;28;20437;-69
2023/01/17 10:00:49;;;;;;;5.23;1.93;;;;;;;1.82;100.00;147905.59;5030222;28;20108;-69
2023/01/17 10:03:36;;;;;;;7.13;1.83;;;;;;;1.82;100.00;147905.59;5028433;28;20085;-69
2023/01/17 10:06:22;;;;;;;2.60;1.33;;;;;;;1.82;100.00;147905.59;5018757;28;20041;-69
2023/01/17 10:09:02;;;;;;;7.10;1.90;;;;;;;1.82;100.00;147905.59;5030893;28;20388;-70
2023/01/17 10:11:52;;;;;;;3.83;1.60;;;;;;;1.82;100.00;147905.59;5028994;28;20034;-68
2023/01/17 10:14:42;;;;;;;3.53;1.73;;;;;;;1.82;100.00;147905.59;5032037;28;20041;-68
2023/01/17 10:17:07;;;;;;;10.83;2.03;;;;;;;1.82;100.00;147905.59;5030139;28;20393;-69
2023/01/17 10:19:35;;;;;;;10.23;2.60;;;;;;;1.82;100.00;147905.59;5030398;28;20098;-69
2023/01/17 10:22:19;;;;;;;10.97;2.70;;;;;;;1.82;100.00;147905.59;5031797;28;20033;-70
2023/01/17 10:25:38;;;;;;;7.17;2.30;;;;;;;1.82;100.00;147905.59;5031751;28;20024;-69
2023/01/17 10:28:13;;;;;;;9.67;2.50;;;;;;;1.82;100.00;147905.59;4970379;28;20054;-69
2023/01/17 10:30:42;;;;;;;8.70;2.30;;;;;;;1.82;100.00;147905.59;4970036;28;20051;-69
2023/01/17 10:33:35;;;;;;;5.53;2.20;;;;;;;1.82;100.00;147905.59;5008807;28;20084;-69
2023/01/17 10:36:07;;;;;;;11.20;2.27;;;;;;;1.82;100.00;147905.59;5011709;28;20033;-69
2023/01/17 10:38:37;;;;;;;9.40;2.80;;;;;;;1.82;100.00;147905.59;5011642;28;20032;-70
2023/01/17 10:41:09;;;;;;;7.47;3.10;;;;;;;1.82;100.00;147905.59;5021483;28;20387;-69
2023/01/17 10:43:44;;;;;;;5.68;2.97;;;;;;;1.82;100.00;147905.59;5030985;28;20029;-70
2023/01/17 10:46:27;;;;;;;7.53;2.90;;;;;;;1.82;100.00;147905.59;5027855;28;20519;-70
2023/01/17 10:48:53;;;;;;;7.23;2.30;;;;;;;1.82;100.00;147905.59;5011469;28;20022;-69
2023/01/17 10:51:43;;;;;;;7.53;3.00;;;;;;;1.82;100.00;147905.59;5011928;28;20076;-68
2023/01/17 10:54:38;;;;;;;9.23;3.30;;;;;;;1.82;100.00;147905.59;5031561;28;20034;-69
2023/01/17 10:57:04;;;;;;;7.60;3.20;;;;;;;1.82;100.00;147905.59;5031284;28;20037;-70
2023/01/17 10:59:32;;;;;;;10.77;3.37;;;;;;;1.82;100.00;147905.59;5031394;28;20393;-70
2023/01/17 11:01:59;;;;;;;12.20;3.80;;;;;;;1.82;100.00;147905.59;5028660;28;20409;-69
2023/01/17 11:04:39;;;;;;;10.07;2.90;;;;;;;1.82;100.00;147905.59;5018208;28;20165;-69
2023/01/17 11:07:13;;;;;;;8.53;3.47;;;;;;;1.82;100.00;147905.59;5011401;28;20025;-69
2023/01/17 11:09:43;;;;;;;12.87;3.40;;;;;;;1.82;100.00;147905.59;5011654;28;20080;-69
2023/01/17 11:12:34;;;;;;;8.90;3.30;;;;;;;1.82;100.00;147905.59;5029271;28;20036;-70
2023/01/17 11:15:02;;;;;;;10.30;3.60;;;;;;;1.82;100.00;147905.59;5024686;28;20033;-71
2023/01/17 11:17:29;;;;;;;9.50;3.43;;;;;;;1.82;100.00;147905.59;5031172;28;20116;-69
2023/01/17 11:20:11;;;;;;;6.80;3.10;;;;;;;1.82;100.00;147905.59;5032768;28;20067;-69
2023/01/17 11:22:36;;;;;;;5.07;2.70;;;;;;;1.82;100.00;147905.59;5034964;28;20356;-69
2023/01/17 11:25:03;;;;;;;9.90;3.37;;;;;;;1.82;100.00;147905.59;5035109;28;20029;-69
2023/01/17 11:27:32;;;;;;;7.07;2.73;;;;;;;1.82;100.00;147905.59;5034720;28;20033;-68
2023/01/17 11:30:03;;;;;;;7.17;3.23;;;;;;;1.82;100.00;147905.59;5034671;28;20025;-69
2023/01/17 11:32:31;;;;;;;8.07;3.40;;;;;;;1.82;100.00;147905.59;5033113;28;20061;-70
2023/01/17 11:35:17;;;;;;;11.03;3.13;;;;;;;1.82;100.00;147905.59;5034661;28;20522;-70
2023/01/17 11:38:17;;;;;;;12.40;3.37;;;;;;;1.82;100.00;147905.59;5033653;28;20028;-70
2023/01/17 11:40:44;;;;;;;8.60;3.13;;;;;;;1.82;100.00;147905.59;5033524;28;20546;-69
2023/01/17 11:43:17;;;;;;;8.40;4.07;;;;;;;1.82;100.00;147905.59;5034795;28;20398;-69
2023/01/17 11:45:43;;;;;;;9.57;3.83;;;;;;;1.82;100.00;147905.59;5033030;28;20505;-70
2023/01/17 11:48:09;;;;;;;7.13;2.80;;;;;;;1.82;100.00;147905.59;5034397;28;20045;-70
2023/01/17 11:50:38;;;;;;;11.33;3.60;;;;;;;1.82;100.00;147905.59;5034716;28;20521;-70
2023/01/17 11:53:24;;;;;;;5.57;2.47;;;;;;;1.82;100.00;147905.59;5032428;28;20221;-69
2023/01/17 11:55:52;;;;;;;6.00;2.60;;;;;;;1.82;100.00;147905.59;5034210;28;20081;-70
2023/01/17 11:58:19;;;;;;;9.67;3.00;;;;;;;1.82;100.00;147905.59;5034489;28;20362;-70
2023/01/17 12:00:51;;;;;;;9.67;3.63;;;;;;;1.82;100.00;147905.59;5032204;28;20120;-71
2023/01/17 12:03:35;;;;;;;7.80;2.88;;;;;;;1.82;100.00;147905.59;5029980;28;20022;-69
2023/01/17 12:06:16;;;;;;;11.30;2.93;;;;;;;1.82;100.00;147905.59;5014316;28;20116;-70
2023/01/17 12:08:52;;;;;;;7.82;3.45;;;;;;;1.82;100.00;147905.59;5014555;28;20053;-70
2023/01/17 12:11:34;;;;;;;8.60;2.90;;;;;;;1.82;100.00;147905.59;5017574;28;20031;-70
2023/01/17 12:14:12;;;;;;;7.37;3.40;;;;;;;1.82;100.00;147905.59;5033140;28;20052;-70
2023/01/17 12:17:07;;;;;;;7.73;3.10;;;;;;;1.82;100.00;147905.59;5032174;28;20038;-70
2023/01/17 12:19:47;;;;;;;6.53;3.03;;;;;;;1.82;100.00;147905.59;5026823;28;20064;-69
2023/01/17 12:22:22;;;;;;;7.23;3.00;;;;;;;1.82;100.00;147905.59;5034066;28;20028;-70
2023/01/17 12:25:04;;;;;;;6.07;2.57;;;;;;;1.82;100.00;147905.59;5032186;28;20428;-70
2023/01/17 12:27:55;;;;;;;8.48;2.80;;;;;;;1.82;100.00;147905.59;5033636;28;20025;-69
2023/01/17 12:30:46;;;;;;;8.63;3.35;;;;;;;1.82;100.00;147905.59;5032980;28;20037;-70
2023/01/17 12:33:42;;;;;;;11.48;3.42;;;;;;;1.82;100.00;147905.59;5004335;28;20124;-70
2023/01/17 12:36:18;;;;;;;6.83;3.37;;;;;;;-145.18;100.00;114074.00;5004647;28;20409;-70
2023/01/17 12:38:46;;;;;;;7.67;3.10;;;;;;;-145.18;100.00;114074.00;5013683;28;20084;-70
2023/01/17 12:41:15;;;;;;;8.70;3.10;;;;;;;-145.18;100.00;114074.00;5013884;28;20490;-70
2023/01/17 12:43:43;;;;;;;7.53;2.60;;;;;;;-145.18;100.00;114074.00;5030292;28;20484;-70
2023/01/17 12:46:22;;;;;;;7.33;3.03;;;;;;;-145.18;100.00;114074.00;5033424;28;20025;-69
2023/01/17 12:48:53;;;;;;;7.80;2.47;;;;;;;-145.18;100.00;114074.00;5032357;28;20079;-69
2023/01/17 12:51:26;;;;;;;4.20;1.80;;;;;;;1.82;100.00;147905.59;5030240;28;20025;-68
2023/01/17 12:53:55;;;;;;;7.90;2.40;;;;;;;;;;5021757;28;20029;-68
2023/01/17 12:56:35;;;;;;;7.60;2.83;;;;;;;-145.18;100.00;114074.00;5013606;28;20425;-71